4W6 weather

CLOSED Blaine Municipal Airport
Blaine, Washington, United States

Public forecast

Using degrees Fahrenheit for public forecast. Weather courtesy of forecast.io.

Closest aviation weather report (METAR) to Blaine Municipal Airport

Closest report is Bellingham International Airport, 14.1 nm (26.1 km) SSE. Retrieved 2019/10/18 12:53 UTC (32 minutes ago):

KBLI 181253Z AUTO 17007KT 6SM RA FEW021 BKN038 OVC055 10/06 A2982 RMK AO2 RAB44 SLP105 P0002 T01000056

Closest aviation forecast (TAF) to Blaine Municipal Airport

Closest forecast is Bellingham International Airport, 14.1 nm (26.1 km) SSE. Retrieved 2019/10/18 12:22 UTC (1 hour ago):

TAF KBLI 181120Z 1812/1912 18010KT P6SM SCT050 OVC100 FM181500 17012G20KT P6SM SCT025 BKN050 OVC100 TEMPO 1817/1821 BKN025 OVC050 FM182100 16010KT P6SM -RA OVC025 FM190800 16004KT 4SM -RA OVC015